Time;durP1;ratioP1;P1;durP2;ratioP2;P2;SDS_P1;SDS_P2;PMS_P1;PMS_P2;Temp;Humidity;BMP_temperature;BMP_pressure;BME280_temperature;BME280_humidity;BME280_pressure;Samples;Min_cycle;Max_cycle;Signal;HPM_P1;HPM_P2
2024/02/08 00:00:11;;;;;;;2.83;2.37;;;;;;;;;;5038385;28;20383;-79
2024/02/08 00:02:38;;;;;;;2.75;2.55;;;;;;;;;;5037781;28;20390;-79
2024/02/08 00:05:06;;;;;;;3.30;2.43;;;;;;;;;;5037290;28;20525;-79
2024/02/08 00:07:32;;;;;;;2.80;2.60;;;;;;;;;;5037555;28;20915;-79
2024/02/08 00:09:58;;;;;;;2.50;2.30;;;;;;;;;;5037424;28;20387;-79
2024/02/08 00:12:25;;;;;;;2.30;2.10;;;;;;;;;;5037272;28;20772;-79
2024/02/08 00:14:51;;;;;;;2.58;2.33;;;;;;;;;;5037457;28;20398;-79
2024/02/08 00:17:20;;;;;;;2.45;2.25;;;;;;;;;;5038165;28;20386;-79
2024/02/08 00:19:50;;;;;;;2.28;2.08;;;;;;;;;;5038797;28;20390;-79
2024/02/08 00:22:20;;;;;;;2.03;1.83;;;;;;;;;;5038169;28;20398;-79
2024/02/08 00:24:46;;;;;;;2.93;1.90;;;;;;;;;;5037805;28;20461;-79
2024/02/08 00:27:12;;;;;;;2.22;1.88;;;;;;;;;;5037647;28;20489;-79
2024/02/08 00:29:41;;;;;;;2.17;1.92;;;;;;;;;;5038166;28;20395;-80
2024/02/08 00:32:08;;;;;;;2.30;2.10;;;;;;;;;;5038471;28;20848;-79
2024/02/08 00:34:34;;;;;;;2.17;2.07;;;;;;;;;;5037894;28;20372;-79
2024/02/08 00:37:00;;;;;;;2.58;2.10;;;;;;;;;;5037575;28;20375;-79
2024/02/08 00:39:26;;;;;;;2.30;2.10;;;;;;;;;;5037680;28;20375;-80
2024/02/08 00:41:57;;;;;;;2.58;2.10;;;;;;;;;;5037184;28;20434;-79
2024/02/08 00:44:26;;;;;;;2.25;1.67;;;;;;;;;;5037672;28;20738;-79
2024/02/08 00:46:52;;;;;;;2.00;1.80;;;;;;;;;;5036863;28;20415;-79
2024/02/08 00:49:18;;;;;;;2.25;1.70;;;;;;;;;;5037386;28;20418;-79
2024/02/08 00:51:44;;;;;;;1.90;1.55;;;;;;;;;;5037228;28;20381;-79
2024/02/08 00:54:10;;;;;;;2.20;1.53;;;;;;;;;;5037060;28;20402;-79
2024/02/08 00:56:36;;;;;;;2.33;1.90;;;;;;;;;;5037452;28;20384;-79
2024/02/08 00:59:02;;;;;;;1.80;1.60;;;;;;;;;;5037229;28;20457;-79
2024/02/08 01:01:30;;;;;;;3.53;1.83;;;;;;;;;;5037019;28;20453;-78
2024/02/08 01:03:56;;;;;;;1.75;1.65;;;;;;;;;;5036679;28;20461;-79
2024/02/08 01:06:22;;;;;;;2.30;1.90;;;;;;;;;;5037197;28;20395;-80
2024/02/08 01:08:50;;;;;;;2.90;1.70;;;;;;;;;;5037008;28;20911;-79
2024/02/08 01:11:16;;;;;;;2.63;1.80;;;;;;;;;;5035518;28;20391;-79
2024/02/08 01:13:43;;;;;;;1.98;1.63;;;;;;;;;;5036823;28;20411;-79
2024/02/08 01:16:11;;;;;;;1.80;1.60;;;;;;;;;;5036595;28;20430;-79
2024/02/08 01:18:41;;;;;;;3.03;1.87;;;;;;;;;;5036535;28;20860;-79
2024/02/08 01:21:08;;;;;;;2.30;1.90;;;;;;;;;;5036270;28;20736;-80
2024/02/08 01:23:34;;;;;;;2.20;1.70;;;;;;;;;;5036827;28;20726;-79
2024/02/08 01:26:03;;;;;;;2.88;1.88;;;;;;;;;;5036586;28;20845;-79
2024/02/08 01:28:29;;;;;;;2.17;1.98;;;;;;;;;;5036556;28;20521;-79
2024/02/08 01:30:55;;;;;;;4.10;2.00;;;;;;;;;;5036071;28;20802;-80
2024/02/08 01:33:21;;;;;;;1.87;1.67;;;;;;;;;;5036034;28;20484;-79
2024/02/08 01:35:47;;;;;;;2.90;1.98;;;;;;;;;;5036104;28;20383;-79
2024/02/08 01:38:16;;;;;;;2.10;1.70;;;;;;;;;;5036507;28;20828;-79
2024/02/08 01:40:42;;;;;;;2.23;1.83;;;;;;;;;;5036364;28;20375;-79
2024/02/08 01:43:10;;;;;;;1.70;1.60;;;;;;;;;;5036497;28;20383;-79
2024/02/08 01:45:41;;;;;;;3.05;1.80;;;;;;;;;;5036541;28;20386;-79
2024/02/08 01:48:15;;;;;;;2.00;1.80;;;;;;;;;;5036173;28;20393;-79
2024/02/08 01:50:41;;;;;;;2.72;2.10;;;;;;;;;;5035727;28;20387;-79
2024/02/08 01:53:13;;;;;;;3.20;1.87;;;;;;;;;;5035655;28;20489;-79
2024/02/08 01:55:39;;;;;;;2.70;1.60;;;;;;;;;;5036320;28;20442;-79
2024/02/08 01:58:09;;;;;;;1.97;1.70;;;;;;;;;;5035737;28;20887;-79
2024/02/08 02:00:38;;;;;;;2.10;1.60;;;;;;;;;;5035674;28;20417;-79
2024/02/08 02:03:05;;;;;;;1.83;1.50;;;;;;;;;;5035627;28;20462;-79
2024/02/08 02:05:31;;;;;;;2.25;1.80;;;;;;;;;;5035780;28;20391;-79
2024/02/08 02:07:58;;;;;;;2.03;1.80;;;;;;;;;;5035506;28;20395;-79
2024/02/08 02:10:29;;;;;;;2.30;2.00;;;;;;;;;;5035097;28;20911;-80
2024/02/08 02:12:57;;;;;;;2.65;1.80;;;;;;;;;;5035857;28;20439;-79
2024/02/08 02:15:23;;;;;;;2.03;1.80;;;;;;;;;;5035561;28;20466;-79
2024/02/08 02:17:49;;;;;;;2.60;1.80;;;;;;;;;;5035540;28;20810;-79
2024/02/08 02:20:18;;;;;;;2.13;1.70;;;;;;;;;;5035366;28;20394;-79
2024/02/08 02:22:46;;;;;;;2.22;1.90;;;;;;;;;;5035748;28;20410;-79
2024/02/08 02:25:13;;;;;;;2.40;2.03;;;;;;;;;;5035326;28;20592;-78
2024/02/08 02:27:40;;;;;;;2.53;2.03;;;;;;;;;;5034997;28;20380;-79
2024/02/08 02:30:18;;;;;;;2.55;1.98;;;;;;;;;;5035437;28;20387;-79
2024/02/08 02:32:49;;;;;;;2.53;2.22;;;;;;;;;;5034682;28;20437;-79
2024/02/08 02:35:17;;;;;;;2.57;1.97;;;;;;;;;;5034557;28;20390;-80
2024/02/08 02:37:45;;;;;;;2.00;1.80;;;;;;;;;;5034391;28;20414;-80
2024/02/08 02:40:23;;;;;;;2.67;1.87;;;;;;;;;;5034726;28;20375;-79
2024/02/08 02:42:54;;;;;;;2.33;1.90;;;;;;;;;;5034313;28;20375;-79
2024/02/08 02:45:29;;;;;;;2.80;1.90;;;;;;;;;;5034726;28;20375;-80
2024/02/08 02:47:56;;;;;;;3.30;1.83;;;;;;;;;;5035027;28;20387;-79
2024/02/08 02:50:23;;;;;;;2.25;1.90;;;;;;;;;;5034937;28;20535;-79
2024/02/08 02:52:50;;;;;;;3.35;1.83;;;;;;;;;;5026608;28;20420;-79
2024/02/08 02:55:16;;;;;;;2.05;1.80;;;;;;;;;;5032566;28;20370;-79
2024/02/08 02:57:43;;;;;;;2.80;1.90;;;;;;;;;;5033812;28;20386;-78
2024/02/08 03:00:21;;;;;;;2.40;1.88;;;;;;;;;;5034537;28;20379;-79
2024/02/08 03:02:50;;;;;;;2.40;1.80;;;;;;;;;;5034531;28;20383;-79
2024/02/08 03:05:17;;;;;;;2.17;1.63;;;;;;;;;;5034732;28;20395;-79
2024/02/08 03:07:44;;;;;;;3.70;1.77;;;;;;;;;;5034737;28;20390;-79
2024/02/08 03:10:11;;;;;;;2.45;1.80;;;;;;;;;;5034668;28;20378;-80
2024/02/08 03:12:38;;;;;;;2.50;1.80;;;;;;;;;;5034723;28;20411;-79
2024/02/08 03:15:08;;;;;;;2.60;1.90;;;;;;;;;;5034842;28;20398;-80
2024/02/08 03:17:35;;;;;;;3.17;1.70;;;;;;;;;;5034453;28;20387;-79
2024/02/08 03:20:04;;;;;;;2.03;1.75;;;;;;;;;;5034664;28;20498;-79
2024/02/08 03:22:34;;;;;;;2.50;1.55;;;;;;;;;;5034877;28;20398;-79
2024/02/08 03:25:04;;;;;;;2.30;1.70;;;;;;;;;;5033962;28;20382;-79
2024/02/08 03:27:32;;;;;;;2.20;1.80;;;;;;;;;;5034412;28;20415;-79
2024/02/08 03:29:58;;;;;;;3.30;2.10;;;;;;;;;;5034746;28;20445;-79
2024/02/08 03:32:23;;;;;;;2.65;2.10;;;;;;;;;;5034496;28;20454;-79
2024/02/08 03:34:53;;;;;;;2.63;1.80;;;;;;;;;;5034696;28;20532;-80
2024/02/08 03:37:20;;;;;;;2.10;1.85;;;;;;;;;;5034775;28;20861;-79
2024/02/08 03:39:47;;;;;;;2.40;1.63;;;;;;;;;;5034405;28;20425;-79
2024/02/08 03:42:14;;;;;;;1.90;1.58;;;;;;;;;;5034650;28;20379;-79
2024/02/08 03:44:40;;;;;;;2.03;1.58;;;;;;;;;;5034172;28;20382;-79
2024/02/08 03:47:07;;;;;;;2.33;1.80;;;;;;;;;;5034607;28;20887;-79
2024/02/08 03:49:35;;;;;;;2.00;1.73;;;;;;;;;;5034202;28;20382;-79
2024/02/08 03:52:01;;;;;;;1.98;1.77;;;;;;;;;;5034144;28;20379;-80
2024/02/08 03:54:30;;;;;;;1.90;1.50;;;;;;;;;;5034226;28;20410;-80
2024/02/08 03:56:59;;;;;;;2.63;1.52;;;;;;;;;;5033827;28;20429;-79
2024/02/08 03:59:28;;;;;;;2.83;1.70;;;;;;;;;;5033893;28;20398;-79
2024/02/08 04:02:00;;;;;;;2.20;1.50;;;;;;;;;;5034537;28;20601;-79
2024/02/08 04:04:29;;;;;;;3.10;1.40;;;;;;;;;;5033937;28;20403;-79
2024/02/08 04:07:45;;;;;;;2.30;1.55;;;;;;;;;;5034456;28;20411;-79
2024/02/08 04:09:50;;;;;;;1.73;1.60;;;;;;;;;;5030956;28;20865;-79
2024/02/08 04:53:45;;;;;;;1.85;1.40;;;;;;;;;;5036958;28;20746;-79
2024/02/08 04:56:12;;;;;;;1.97;1.70;;;;;;;;;;5037110;28;20380;-79
2024/02/08 04:58:40;;;;;;;2.28;1.40;;;;;;;;;;5036126;28;20429;-79
2024/02/08 05:01:08;;;;;;;2.28;1.55;;;;;;;;;;5036774;28;20375;-79
2024/02/08 05:03:37;;;;;;;3.28;1.48;;;;;;;;;;5035525;28;20590;-79
2024/02/08 05:06:03;;;;;;;2.00;1.23;;;;;;;;;;5036577;28;20453;-79
2024/02/08 05:08:29;;;;;;;1.80;1.05;;;;;;;;;;5036715;28;20387;-79
2024/02/08 05:10:55;;;;;;;1.35;0.98;;;;;;;;;;5036803;28;20401;-78
2024/02/08 05:13:24;;;;;;;2.53;1.40;;;;;;;;;;5036794;28;20471;-79
2024/02/08 05:15:50;;;;;;;1.55;1.00;;;;;;;;;;5036539;28;21141;-79
2024/02/08 05:18:16;;;;;;;1.40;1.00;;;;;;;;;;5036342;28;20380;-79
2024/02/08 05:20:42;;;;;;;1.88;1.00;;;;;;;;;;5035994;28;20401;-79
2024/02/08 05:23:08;;;;;;;2.45;1.10;;;;;;;;;;5036508;28;20394;-79
2024/02/08 05:25:35;;;;;;;1.30;1.20;;;;;;;;;;5036954;28;20433;-79
2024/02/08 05:28:03;;;;;;;1.77;1.20;;;;;;;;;;5036431;28;20402;-80
2024/02/08 05:30:32;;;;;;;1.70;1.30;;;;;;;;;;5035729;28;20383;-79
2024/02/08 05:33:00;;;;;;;2.20;1.00;;;;;;;;;;5036116;28;20407;-79
2024/02/08 05:35:28;;;;;;;1.70;1.20;;;;;;;;;;5035633;28;20829;-80
2024/02/08 05:37:57;;;;;;;1.25;0.95;;;;;;;;;;5036101;28;20383;-79
2024/02/08 05:40:23;;;;;;;1.50;1.00;;;;;;;;;;5036186;28;20387;-79
2024/02/08 05:42:49;;;;;;;2.10;0.80;;;;;;;;;;5035655;28;20391;-79
2024/02/08 05:45:23;;;;;;;1.27;0.90;;;;;;;;;;5035716;28;20471;-80
2024/02/08 05:47:49;;;;;;;0.80;0.80;;;;;;;;;;5035908;28;20444;-80
2024/02/08 05:50:21;;;;;;;1.55;1.00;;;;;;;;;;5035201;28;20418;-79
2024/02/08 05:52:51;;;;;;;1.02;0.88;;;;;;;;;;5035164;28;20414;-79
2024/02/08 05:55:19;;;;;;;1.35;0.90;;;;;;;;;;5035359;28;20861;-79
2024/02/08 05:57:45;;;;;;;1.25;0.90;;;;;;;;;;5035401;28;20391;-79
2024/02/08 06:00:31;;;;;;;1.10;0.73;;;;;;;;;;5035605;28;20407;-79
2024/02/08 06:03:01;;;;;;;1.00;0.82;;;;;;;;;;5036130;28;20375;-80
2024/02/08 06:05:27;;;;;;;1.20;1.08;;;;;;;;;;5035915;28;20382;-79
2024/02/08 06:07:56;;;;;;;1.63;1.20;;;;;;;;;;5035283;28;20520;-80
2024/02/08 06:10:23;;;;;;;1.55;1.00;;;;;;;;;;5035426;28;20379;-79
2024/02/08 06:12:59;;;;;;;1.20;1.10;;;;;;;;;;5035323;28;20734;-79
2024/02/08 06:15:32;;;;;;;1.50;1.20;;;;;;;;;;5035496;28;20391;-80
2024/02/08 06:18:03;;;;;;;2.03;1.30;;;;;;;;;;5035561;28;20390;-80
2024/02/08 06:20:51;;;;;;;1.10;1.00;;;;;;;;;;5035323;28;20383;-80
2024/02/08 06:23:22;;;;;;;2.33;1.10;;;;;;;;;;5035248;28;20478;-80
2024/02/08 06:28:37;;;;;;;1.30;1.05;;;;;;;;;;5035240;28;20383;-80
2024/02/08 06:31:06;;;;;;;2.00;1.55;;;;;;;;;;5035410;28;20379;-80
2024/02/08 06:33:42;;;;;;;1.80;1.48;;;;;;;;;;5035213;28;20885;-80
2024/02/08 06:36:08;;;;;;;2.10;1.63;;;;;;;;;;5034481;28;20389;-79
2024/02/08 06:38:53;;;;;;;2.00;1.20;;;;;;;;;;5034767;28;20387;-79
2024/02/08 06:41:51;;;;;;;2.17;1.25;;;;;;;;;;5035163;28;20403;-80
2024/02/08 06:47:18;;;;;;;1.95;1.20;;;;;;;;;;5034735;28;20391;-80
2024/02/08 07:39:36;;;;;;;2.53;1.00;;;;;;;;;;5034767;28;20386;-79
2024/02/08 07:42:12;;;;;;;2.80;1.20;;;;;;;;;;5034943;28;20722;-79
2024/02/08 07:44:39;;;;;;;1.73;1.33;;;;;;;;;;5034665;28;20390;-80
2024/02/08 07:47:05;;;;;;;1.40;1.30;;;;;;;;;;5034883;28;20376;-80
2024/02/08 07:49:57;;;;;;;1.30;1.05;;;;;;;;;;5037658;28;20375;-79
2024/02/08 07:52:20;;;;;;;1.23;1.10;;;;;;;;;;5038337;28;20402;-80
2024/02/08 07:54:50;;;;;;;2.40;1.20;;;;;;;;;;5039404;28;20385;-79
2024/02/08 07:57:24;;;;;;;1.50;1.40;;;;;;;;;;5039322;28;20718;-79
2024/02/08 07:59:53;;;;;;;1.88;1.20;;;;;;;;;;5039079;28;20383;-81
2024/02/08 08:02:23;;;;;;;2.78;1.90;;;;;;;;;;5039398;28;20375;-81
2024/02/08 08:04:53;;;;;;;2.17;2.00;;;;;;;;;;5038495;28;20815;-80
2024/02/08 08:07:25;;;;;;;2.30;1.35;;;;;;;;;;5038333;28;20379;-81
2024/02/08 08:10:07;;;;;;;1.40;1.23;;;;;;;;;;5038496;28;20402;-81
2024/02/08 08:12:35;;;;;;;3.20;1.50;;;;;;;;;;5039208;28;20403;-80
2024/02/08 08:19:53;;;;;;;2.10;1.50;;;;;;;;;;5039230;28;20395;-80
2024/02/08 08:25:25;;;;;;;2.17;1.45;;;;;;;;;;5038700;28;20391;-81
2024/02/08 08:30:38;;;;;;;1.67;1.40;;;;;;;;;;5008298;28;20383;-80
2024/02/08 08:35:37;;;;;;;1.90;1.30;;;;;;;;;;5039194;28;20801;-81
2024/02/08 08:40:48;;;;;;;4.05;1.90;;;;;;;;;;5038745;28;20379;-81
2024/02/08 08:43:22;;;;;;;2.50;1.95;;;;;;;;;;5038885;28;20384;-81
2024/02/08 08:45:51;;;;;;;1.85;1.45;;;;;;;;;;5038200;28;20418;-80
2024/02/08 08:48:20;;;;;;;2.08;1.73;;;;;;;;;;5038921;28;20391;-80
2024/02/08 08:50:55;;;;;;;2.20;1.52;;;;;;;;;;5038862;28;20407;-80
2024/02/08 08:53:41;;;;;;;2.13;1.38;;;;;;;;;;5038710;28;20414;-81
2024/02/08 08:56:10;;;;;;;1.35;1.10;;;;;;;;;;5038814;28;21009;-81
2024/02/08 08:58:40;;;;;;;1.92;1.40;;;;;;;;;;5038410;28;20889;-81
2024/02/08 09:01:15;;;;;;;1.70;1.25;;;;;;;;;;5038710;28;20383;-81
2024/02/08 09:04:09;;;;;;;2.07;1.30;;;;;;;;;;5038100;28;20763;-81
2024/02/08 09:06:41;;;;;;;1.85;1.00;;;;;;;;;;5038338;28;20764;-81
2024/02/08 09:11:57;;;;;;;1.85;1.00;;;;;;;;;;5038669;28;20386;-81
2024/02/08 09:14:40;;;;;;;1.13;1.00;;;;;;;;;;5037987;28;20407;-80
2024/02/08 09:17:06;;;;;;;1.98;1.00;;;;;;;;;;5038468;28;20387;-81
2024/02/08 09:19:32;;;;;;;1.30;1.00;;;;;;;;;;5038379;28;20402;-81
2024/02/08 09:21:59;;;;;;;1.90;1.00;;;;;;;;;;5038224;28;20394;-81
2024/02/08 09:24:26;;;;;;;2.27;2.07;;;;;;;;;;5038187;28;20471;-81
2024/02/08 09:27:36;;;;;;;2.60;1.10;;;;;;;;;;5038139;28;20427;-80
2024/02/08 09:29:50;;;;;;;2.47;1.17;;;;;;;;;;5032335;28;20400;-80
2024/02/08 09:35:01;;;;;;;0.95;0.90;;;;;;;;;;5037561;28;20911;-81
2024/02/08 09:37:29;;;;;;;2.22;1.55;;;;;;;;;;5038298;28;20466;-80
2024/02/08 09:42:27;;;;;;;2.50;2.00;;;;;;;;;;5038706;28;20913;-80
2024/02/08 09:45:04;;;;;;;2.03;1.38;;;;;;;;;;5037592;28;20877;-81
2024/02/08 09:47:44;;;;;;;2.33;1.30;;;;;;;;;;5037584;28;20395;-80
2024/02/08 09:50:21;;;;;;;1.90;1.40;;;;;;;;;;5037643;28;20470;-81
2024/02/08 09:52:56;;;;;;;1.50;1.20;;;;;;;;;;5037594;28;20413;-81
2024/02/08 09:55:32;;;;;;;2.43;1.20;;;;;;;;;;5037526;28;20420;-81
2024/02/08 09:57:58;;;;;;;1.25;0.95;;;;;;;;;;5037033;28;20780;-80
2024/02/08 10:00:44;;;;;;;1.77;0.90;;;;;;;;;;5037263;28;20462;-81
2024/02/08 10:03:31;;;;;;;1.30;1.20;;;;;;;;;;5037228;28;20438;-81
2024/02/08 10:05:58;;;;;;;1.75;1.13;;;;;;;;;;5037278;28;20387;-80
2024/02/08 10:08:28;;;;;;;2.83;1.30;;;;;;;;;;5037587;28;20394;-80
2024/02/08 10:11:23;;;;;;;1.40;1.20;;;;;;;;;;5036564;28;20461;-81
2024/02/08 10:13:55;;;;;;;1.05;0.85;;;;;;;;;;5037491;28;20407;-81
2024/02/08 10:16:29;;;;;;;1.10;0.90;;;;;;;;;;5037310;28;20466;-81
2024/02/08 10:19:03;;;;;;;1.33;0.70;;;;;;;;;;5037282;28;20382;-82
2024/02/08 10:21:30;;;;;;;1.52;0.90;;;;;;;;;;5036751;28;20380;-81
2024/02/08 10:23:59;;;;;;;1.42;0.80;;;;;;;;;;5035420;28;20404;-82
2024/02/08 10:26:38;;;;;;;0.93;0.90;;;;;;;;;;5037081;28;20423;-82
2024/02/08 10:29:08;;;;;;;0.63;0.63;;;;;;;;;;5037066;28;20387;-82
2024/02/08 10:31:37;;;;;;;1.55;1.20;;;;;;;;;;5036538;28;20375;-81
2024/02/08 10:34:09;;;;;;;1.27;0.80;;;;;;;;;;5036775;28;20398;-81
2024/02/08 10:36:44;;;;;;;1.02;0.95;;;;;;;;;;5036590;28;20749;-81
2024/02/08 10:39:26;;;;;;;0.77;0.77;;;;;;;;;;5036847;28;20375;-82
2024/02/08 10:41:58;;;;;;;0.83;0.80;;;;;;;;;;5036738;28;20457;-82
2024/02/08 10:44:27;;;;;;;1.42;0.82;;;;;;;;;;5037512;28;20402;-82
2024/02/08 10:47:06;;;;;;;0.90;0.70;;;;;;;;;;5036198;28;20442;-80
2024/02/08 10:49:42;;;;;;;1.00;0.80;;;;;;;;;;5036359;28;20445;-81
2024/02/08 10:52:11;;;;;;;0.90;0.80;;;;;;;;;;5036861;28;20387;-81
2024/02/08 10:54:48;;;;;;;1.50;0.90;;;;;;;;;;5035902;28;20413;-81
2024/02/08 11:00:00;;;;;;;1.00;0.80;;;;;;;;;;5036276;28;20382;-80
2024/02/08 11:02:48;;;;;;;1.10;0.80;;;;;;;;;;5036025;28;20386;-80
2024/02/08 11:05:34;;;;;;;1.00;0.85;;;;;;;;;;4996135;28;20429;-80
2024/02/08 11:08:00;;;;;;;1.25;0.90;;;;;;;;;;4996080;28;20374;-82
2024/02/08 11:10:32;;;;;;;2.00;0.80;;;;;;;;;;4996255;28;20426;-82
2024/02/08 11:13:10;;;;;;;1.52;0.95;;;;;;;;;;4995366;28;21900;-82
2024/02/08 11:15:39;;;;;;;1.02;0.90;;;;;;;;;;4996204;28;20417;-82
2024/02/08 11:18:05;;;;;;;1.10;0.90;;;;;;;;;;4996142;28;20442;-81
2024/02/08 11:20:44;;;;;;;1.13;0.80;;;;;;;;;;4995739;28;20445;-82
2024/02/08 11:23:22;;;;;;;0.90;0.80;;;;;;;;;;4995843;28;20378;-82
2024/02/08 11:25:49;;;;;;;0.90;0.80;;;;;;;;;;4995801;28;20436;-81
2024/02/08 11:28:24;;;;;;;1.00;0.90;;;;;;;;;;4996088;28;20424;-81
2024/02/08 11:30:51;;;;;;;1.80;0.90;;;;;;;;;;4996491;28;20405;-81
2024/02/08 11:33:22;;;;;;;0.82;0.73;;;;;;;;;;4996357;28;20461;-81
2024/02/08 11:35:54;;;;;;;0.70;0.70;;;;;;;;;;4996398;28;20390;-83
2024/02/08 11:38:34;;;;;;;0.93;0.77;;;;;;;;;;4995886;28;20469;-83
2024/02/08 11:41:10;;;;;;;1.40;0.90;;;;;;;;;;4995838;28;20378;-83
2024/02/08 11:43:46;;;;;;;0.95;0.65;;;;;;;;;;4995783;28;20394;-83
2024/02/08 11:46:20;;;;;;;0.75;0.73;;;;;;;;;;4995969;28;20752;-83
2024/02/08 11:48:46;;;;;;;0.75;0.60;;;;;;;;;;4996009;28;20473;-83
2024/02/08 11:51:13;;;;;;;0.98;0.80;;;;;;;;;;4994589;28;20495;-82
2024/02/08 11:53:40;;;;;;;1.40;1.00;;;;;;;;;;4994968;28;20406;-81
2024/02/08 11:56:09;;;;;;;1.77;1.00;;;;;;;;;;4995498;28;20849;-81
2024/02/08 11:58:40;;;;;;;1.13;0.88;;;;;;;;;;4994798;28;20378;-81
2024/02/08 12:01:06;;;;;;;0.95;0.75;;;;;;;;;;4995896;28;20393;-81
2024/02/08 12:03:32;;;;;;;1.00;0.60;;;;;;;;;;5006819;28;20414;-81
2024/02/08 12:05:58;;;;;;;0.85;0.60;;;;;;;;;;5035069;28;20473;-81
2024/02/08 12:08:25;;;;;;;0.60;0.50;;;;;;;;;;5034590;28;20383;-81
2024/02/08 12:10:51;;;;;;;1.02;0.70;;;;;;;;;;5034839;28;20902;-81
2024/02/08 12:13:24;;;;;;;1.13;0.75;;;;;;;;;;5035022;28;20414;-81
2024/02/08 12:15:55;;;;;;;1.25;0.68;;;;;;;;;;5034491;28;20846;-81
2024/02/08 12:18:21;;;;;;;0.70;0.50;;;;;;;;;;5034269;28;20467;-81
2024/02/08 12:20:55;;;;;;;1.80;0.73;;;;;;;;;;5034564;28;20383;-81
2024/02/08 12:23:23;;;;;;;0.70;0.70;;;;;;;;;;5034211;28;20788;-80
2024/02/08 12:25:53;;;;;;;2.65;0.70;;;;;;;;;;5034627;28;20430;-81
2024/02/08 12:28:19;;;;;;;0.82;0.60;;;;;;;;;;5033835;28;20842;-81
2024/02/08 12:30:45;;;;;;;1.45;0.80;;;;;;;;;;5034600;28;20385;-82
2024/02/08 12:33:12;;;;;;;0.93;0.80;;;;;;;;;;5034405;28;20504;-82
2024/02/08 12:35:40;;;;;;;1.05;0.70;;;;;;;;;;5037919;28;20383;-82
2024/02/08 12:38:08;;;;;;;1.77;0.90;;;;;;;;;;5038422;28;20433;-82
2024/02/08 12:40:35;;;;;;;1.30;0.80;;;;;;;;;;5038320;28;20387;-82
2024/02/08 12:43:01;;;;;;;1.00;0.73;;;;;;;;;;5037274;28;20453;-80
2024/02/08 12:45:31;;;;;;;1.38;0.90;;;;;;;;;;5037514;28;20379;-81
2024/02/08 12:47:57;;;;;;;1.40;0.90;;;;;;;;;;5037350;28;20930;-80
2024/02/08 12:50:24;;;;;;;2.08;1.10;;;;;;;;;;5037627;28;20387;-81
2024/02/08 12:52:55;;;;;;;1.55;0.90;;;;;;;;;;5037728;28;20811;-81
2024/02/08 12:55:22;;;;;;;1.83;1.20;;;;;;;;;;5037692;28;20384;-81
2024/02/08 12:58:02;;;;;;;2.75;1.10;;;;;;;;;;5038710;28;20371;-81
2024/02/08 13:00:34;;;;;;;1.67;1.00;;;;;;;;;;5037566;28;20397;-81
2024/02/08 13:03:05;;;;;;;1.50;1.00;;;;;;;;;;5037788;28;20391;-81
2024/02/08 13:05:41;;;;;;;3.30;1.30;;;;;;;;;;5037993;28;20473;-83
2024/02/08 13:08:17;;;;;;;2.60;1.15;;;;;;;;;;5037208;28;20402;-83
2024/02/08 13:10:43;;;;;;;2.22;1.20;;;;;;;;;;5037293;28;20470;-83
2024/02/08 13:13:10;;;;;;;1.60;0.90;;;;;;;;;;5037133;28;20494;-83
2024/02/08 13:15:36;;;;;;;2.45;1.10;;;;;;;;;;5037189;28;20379;-83
2024/02/08 13:18:09;;;;;;;2.20;1.17;;;;;;;;;;5037098;28;20387;-83
2024/02/08 13:20:35;;;;;;;4.47;1.00;;;;;;;;;;5037073;28;20389;-83
2024/02/08 13:23:01;;;;;;;2.10;0.80;;;;;;;;;;5036772;28;20418;-83
2024/02/08 13:25:30;;;;;;;4.43;1.30;;;;;;;;;;5036676;28;20388;-83
2024/02/08 13:28:00;;;;;;;4.20;1.58;;;;;;;;;;5036289;28;20875;-83
2024/02/08 13:30:29;;;;;;;5.45;4.00;;;;;;;;;;5037602;28;20796;-83
2024/02/08 13:32:55;;;;;;;5.97;2.85;;;;;;;;;;5037760;28;20486;-83
2024/02/08 13:35:22;;;;;;;3.80;1.50;;;;;;;;;;5037921;28;20390;-83
2024/02/08 13:37:49;;;;;;;2.92;1.65;;;;;;;;;;5037735;28;20383;-83
2024/02/08 13:40:17;;;;;;;4.50;1.20;;;;;;;;;;5037209;28;20865;-83
2024/02/08 13:42:43;;;;;;;5.05;3.40;;;;;;;;;;5036963;28;20462;-83
2024/02/08 13:45:12;;;;;;;8.63;5.80;;;;;;;;;;5036554;28;20485;-83
2024/02/08 13:47:38;;;;;;;18.25;10.02;;;;;;;;;;5036998;28;20745;-81
2024/02/08 13:50:10;;;;;;;9.27;4.97;;;;;;;;;;5037360;28;20387;-83
2024/02/08 13:52:37;;;;;;;3.90;2.10;;;;;;;;;;5037453;28;20857;-83
2024/02/08 13:55:07;;;;;;;8.25;5.20;;;;;;;;;;5037517;28;20433;-83
2024/02/08 13:57:33;;;;;;;5.38;3.28;;;;;;;;;;5036658;28;20884;-83
2024/02/08 14:00:03;;;;;;;4.22;1.38;;;;;;;;;;5037280;28;20938;-83
2024/02/08 14:02:32;;;;;;;4.43;1.80;;;;;;;;;;5036945;28;20943;-83
2024/02/08 14:05:04;;;;;;;3.53;1.30;;;;;;;;;;5036806;28;20421;-83
2024/02/08 14:07:30;;;;;;;3.83;2.65;;;;;;;;;;5037100;28;20388;-80
2024/02/08 14:10:00;;;;;;;5.25;2.05;;;;;;;;;;5036400;28;20481;-83
2024/02/08 14:12:33;;;;;;;4.55;1.48;;;;;;;;;;5037641;28;20734;-81
2024/02/08 14:15:06;;;;;;;4.10;1.58;;;;;;;;;;5037756;28;20395;-82
2024/02/08 14:17:34;;;;;;;4.80;1.88;;;;;;;;;;5037295;28;20422;-82
2024/02/08 14:20:04;;;;;;;6.38;2.25;;;;;;;;;;5037273;28;20386;-81
2024/02/08 14:22:38;;;;;;;7.97;1.77;;;;;;;;;;5037510;28;20375;-81
2024/02/08 14:25:08;;;;;;;7.60;1.50;;;;;;;;;;5037234;28;20409;-83
2024/02/08 14:27:34;;;;;;;3.97;1.63;;;;;;;;;;5036355;28;20788;-81
2024/02/08 14:30:05;;;;;;;4.28;1.60;;;;;;;;;;5037521;28;20473;-82
2024/02/08 14:32:33;;;;;;;4.35;1.90;;;;;;;;;;5037494;28;20371;-81
2024/02/08 14:34:59;;;;;;;6.05;1.70;;;;;;;;;;5036864;28;20446;-81
2024/02/08 14:37:28;;;;;;;6.70;1.92;;;;;;;;;;5036675;28;20392;-81
2024/02/08 14:39:55;;;;;;;6.00;1.80;;;;;;;;;;5036758;28;20482;-82
2024/02/08 14:42:27;;;;;;;7.75;2.03;;;;;;;;;;5037111;28;20383;-81
2024/02/08 14:44:54;;;;;;;4.97;1.77;;;;;;;;;;5036987;28;20441;-81
2024/02/08 14:47:25;;;;;;;6.22;2.10;;;;;;;;;;5036314;28;20387;-81
2024/02/08 14:49:54;;;;;;;5.78;2.22;;;;;;;;;;5036633;28;20390;-81
2024/02/08 14:52:24;;;;;;;4.82;1.70;;;;;;;;;;5036506;28;20940;-81
2024/02/08 14:54:54;;;;;;;6.15;1.73;;;;;;;;;;5035598;28;20525;-81
2024/02/08 14:57:24;;;;;;;4.82;2.00;;;;;;;;;;5035590;28;20383;-81
2024/02/08 14:59:52;;;;;;;7.63;2.20;;;;;;;;;;5036155;28;20384;-82
2024/02/08 15:02:21;;;;;;;6.07;2.55;;;;;;;;;;5035875;28;20389;-82
2024/02/08 15:04:53;;;;;;;7.15;1.98;;;;;;;;;;5036409;28;20778;-82
2024/02/08 15:10:13;;;;;;;7.07;2.00;;;;;;;;;;5036110;28;20390;-82
2024/02/08 15:12:51;;;;;;;5.22;2.00;;;;;;;;;;5035253;28;20853;-82
2024/02/08 15:15:29;;;;;;;3.97;1.70;;;;;;;;;;5035717;28;20805;-82
2024/02/08 15:18:11;;;;;;;6.80;1.50;;;;;;;;;;5035680;28;20406;-82
2024/02/08 15:20:43;;;;;;;5.22;1.63;;;;;;;;;;5035774;28;20394;-82
2024/02/08 15:23:31;;;;;;;5.88;1.60;;;;;;;;;;5035393;28;20736;-82
2024/02/08 15:25:59;;;;;;;6.07;1.63;;;;;;;;;;5035010;28;20386;-82
2024/02/08 15:28:26;;;;;;;5.68;1.40;;;;;;;;;;5035225;28;20379;-81
2024/02/08 15:30:55;;;;;;;6.97;1.55;;;;;;;;;;5035114;28;20777;-82
2024/02/08 15:33:31;;;;;;;4.80;1.87;;;;;;;;;;5034737;28;20407;-82
2024/02/08 15:36:10;;;;;;;6.30;1.90;;;;;;;;;;5034508;28;20425;-82
2024/02/08 15:38:45;;;;;;;5.78;2.03;;;;;;;;;;5034531;28;20375;-82
2024/02/08 15:41:19;;;;;;;6.18;1.70;;;;;;;;;;5034325;28;20773;-82
2024/02/08 15:43:48;;;;;;;4.78;1.52;;;;;;;;;;5034114;28;20375;-82
2024/02/08 15:46:20;;;;;;;7.63;2.15;;;;;;;;;;5033573;28;20384;-81
2024/02/08 15:48:46;;;;;;;4.03;1.52;;;;;;;;;;5034448;28;20376;-82
2024/02/08 15:51:13;;;;;;;5.82;1.85;;;;;;;;;;5034877;28;20383;-82
2024/02/08 15:53:48;;;;;;;6.88;2.17;;;;;;;;;;5036197;28;20456;-82
2024/02/08 15:56:21;;;;;;;8.23;2.20;;;;;;;;;;5035564;28;20383;-81
2024/02/08 15:58:53;;;;;;;6.40;2.10;;;;;;;;;;5036406;28;20379;-81
2024/02/08 16:01:48;;;;;;;5.80;1.83;;;;;;;;;;5036301;28;20379;-82
2024/02/08 16:04:37;;;;;;;5.40;1.88;;;;;;;;;;5035491;28;20414;-81
2024/02/08 16:06:54;;;;;;;7.45;2.20;;;;;;;;;;5036041;28;20806;-81
2024/02/08 16:09:26;;;;;;;10.40;2.40;;;;;;;;;;5036660;28;20390;-81
2024/02/08 16:11:59;;;;;;;5.57;1.80;;;;;;;;;;5039969;28;20454;-81
2024/02/08 16:14:26;;;;;;;6.90;2.25;;;;;;;;;;5039877;28;20925;-81
2024/02/08 16:17:07;;;;;;;5.10;1.90;;;;;;;;;;5039720;28;20383;-81
2024/02/08 16:19:50;;;;;;;6.93;1.88;;;;;;;;;;5039659;28;20371;-81
2024/02/08 16:22:19;;;;;;;5.18;1.85;;;;;;;;;;5039687;28;20853;-81
2024/02/08 16:24:49;;;;;;;8.60;1.80;;;;;;;;;;5039084;28;20874;-81
2024/02/08 16:27:19;;;;;;;4.63;1.80;;;;;;;;;;5039236;28;20383;-81
2024/02/08 16:29:58;;;;;;;3.60;1.60;;;;;;;;;;5039646;28;20371;-81
2024/02/08 16:32:32;;;;;;;7.75;2.45;;;;;;;;;;5039125;28;20383;-81
2024/02/08 16:35:00;;;;;;;7.55;2.70;;;;;;;;;;5039120;28;20391;-81
2024/02/08 16:37:42;;;;;;;5.47;2.25;;;;;;;;;;5039902;28;20394;-84
2024/02/08 16:40:28;;;;;;;5.43;2.17;;;;;;;;;;5039296;28;20403;-81
2024/02/08 16:42:56;;;;;;;6.05;2.30;;;;;;;;;;5038648;28;20470;-81
2024/02/08 16:45:34;;;;;;;3.70;2.17;;;;;;;;;;5039492;28;20732;-81
2024/02/08 16:48:13;;;;;;;4.77;2.20;;;;;;;;;;5038516;28;20383;-81
2024/02/08 16:50:45;;;;;;;5.95;2.25;;;;;;;;;;5038907;28;20474;-81
2024/02/08 16:53:14;;;;;;;5.25;2.65;;;;;;;;;;5038828;28;20407;-81
2024/02/08 16:55:47;;;;;;;5.38;2.38;;;;;;;;;;5038085;28;20748;-81
2024/02/08 16:58:17;;;;;;;7.25;2.85;;;;;;;;;;5038895;28;20399;-81
2024/02/08 17:00:54;;;;;;;8.23;3.03;;;;;;;;;;5038144;28;20387;-81
2024/02/08 17:06:27;;;;;;;7.60;2.70;;;;;;;;;;5039123;28;20377;-81
2024/02/08 17:11:44;;;;;;;6.22;2.53;;;;;;;;;;5038409;28;20648;-80
2024/02/08 17:14:32;;;;;;;6.90;2.55;;;;;;;;;;5037847;28;20490;-82